Ralpho, Pennsylvania
Current Conditions -  °F | °C
As of 7:53 PM on Tuesday 21 Oct 2014 (Local Time) from KSEG Reporting Station
Overcast Overcast  
Wind Chill: 55°   Ceiling: 11000
Heat Index: 55°   Visibility: 10mi
Dew Point: 48°   Wind: 3mph
Humidity: 77%   Direction: 360°N
Pressure: 29.9"   Gusts: NA
Location:  40.7842°N, 76.5797°W
Report Text: KSEG 212353Z AUTO 36003KT 10SM OVC110 13/09 A2990 RMK AO2 SLP124 T01280089 10172 20122 51018
Loading
Personal Weather Stations






























Interactive Weather Map
Tropical Storm Tracking
New forecast layout! Learn more

10-Day Weather Forecast

Advertisements
Track Severe Weather on mobile